sensor_id;sensor_type;location;lat;lon;timestamp;temperature;humidity
70294;DHT22;74367;35.280;-77.632;2024-03-17T00:00:27;18.51;78.60
70294;DHT22;74367;35.280;-77.632;2024-03-17T00:02:53;18.38;78.36
70294;DHT22;74367;35.280;-77.632;2024-03-17T00:05:19;18.46;77.04
70294;DHT22;74367;35.280;-77.632;2024-03-17T00:07:45;18.11;75.97
70294;DHT22;74367;35.280;-77.632;2024-03-17T00:10:11;18.15;76.67
70294;DHT22;74367;35.280;-77.632;2024-03-17T00:12:38;18.15;79.04
70294;DHT22;74367;35.280;-77.632;2024-03-17T00:15:08;18.12;77.23
70294;DHT22;74367;35.280;-77.632;2024-03-17T00:17:34;18.02;77.50
70294;DHT22;74367;35.280;-77.632;2024-03-17T00:20:03;18.02;78.88
70294;DHT22;74367;35.280;-77.632;2024-03-17T00:22:37;17.93;78.08
70294;DHT22;74367;35.280;-77.632;2024-03-17T00:25:06;17.81;75.45
70294;DHT22;74367;35.280;-77.632;2024-03-17T00:27:32;17.74;78.06
70294;DHT22;74367;35.280;-77.632;2024-03-17T00:29:58;17.93;79.15
70294;DHT22;74367;35.280;-77.632;2024-03-17T00:32:24;17.84;78.07
70294;DHT22;74367;35.280;-77.632;2024-03-17T00:34:50;17.67;78.38
70294;DHT22;74367;35.280;-77.632;2024-03-17T00:37:16;17.71;77.62
70294;DHT22;74367;35.280;-77.632;2024-03-17T00:39:43;17.79;79.20
70294;DHT22;74367;35.280;-77.632;2024-03-17T00:42:12;17.73;77.99
70294;DHT22;74367;35.280;-77.632;2024-03-17T00:44:38;17.59;75.62
70294;DHT22;74367;35.280;-77.632;2024-03-17T00:47:04;17.43;77.12
70294;DHT22;74367;35.280;-77.632;2024-03-17T00:49:30;17.53;76.80
70294;DHT22;74367;35.280;-77.632;2024-03-17T00:51:56;17.29;75.61
70294;DHT22;74367;35.280;-77.632;2024-03-17T00:54:22;17.19;76.08
70294;DHT22;74367;35.280;-77.632;2024-03-17T00:56:48;17.46;81.03
70294;DHT22;74367;35.280;-77.632;2024-03-17T00:59:14;17.26;78.33
70294;DHT22;74367;35.280;-77.632;2024-03-17T01:01:40;17.25;79.80
70294;DHT22;74367;35.280;-77.632;2024-03-17T01:04:06;17.36;79.10
70294;DHT22;74367;35.280;-77.632;2024-03-17T01:06:32;17.18;76.72
70294;DHT22;74367;35.280;-77.632;2024-03-17T01:08:58;17.30;78.88
70294;DHT22;74367;35.280;-77.632;2024-03-17T01:11:24;17.30;77.71
70294;DHT22;74367;35.280;-77.632;2024-03-17T01:13:51;17.01;76.68
70294;DHT22;74367;35.280;-77.632;2024-03-17T01:16:17;16.82;80.05
70294;DHT22;74367;35.280;-77.632;2024-03-17T01:18:43;17.07;79.98
70294;DHT22;74367;35.280;-77.632;2024-03-17T01:21:11;16.82;80.60
70294;DHT22;74367;35.280;-77.632;2024-03-17T01:23:37;17.07;79.21
70294;DHT22;74367;35.280;-77.632;2024-03-17T01:26:03;17.09;80.40
70294;DHT22;74367;35.280;-77.632;2024-03-17T01:28:29;16.72;77.42
70294;DHT22;74367;35.280;-77.632;2024-03-17T01:30:55;16.84;79.39
70294;DHT22;74367;35.280;-77.632;2024-03-17T01:33:21;17.08;81.45
70294;DHT22;74367;35.280;-77.632;2024-03-17T01:35:47;17.07;77.96
70294;DHT22;74367;35.280;-77.632;2024-03-17T01:38:13;16.61;77.13
70294;DHT22;74367;35.280;-77.632;2024-03-17T01:40:40;16.85;77.93
70294;DHT22;74367;35.280;-77.632;2024-03-17T01:43:10;16.84;78.12
70294;DHT22;74367;35.280;-77.632;2024-03-17T01:45:36;16.63;76.93
70294;DHT22;74367;35.280;-77.632;2024-03-17T01:48:03;16.59;78.30
70294;DHT22;74367;35.280;-77.632;2024-03-17T01:50:36;16.92;83.29
70294;DHT22;74367;35.280;-77.632;2024-03-17T01:53:04;16.84;78.40
70294;DHT22;74367;35.280;-77.632;2024-03-17T01:55:32;16.57;79.38
70294;DHT22;74367;35.280;-77.632;2024-03-17T01:57:59;16.74;80.80
70294;DHT22;74367;35.280;-77.632;2024-03-17T02:00:25;16.16;80.17
70294;DHT22;74367;35.280;-77.632;2024-03-17T02:02:52;16.53;80.21
70294;DHT22;74367;35.280;-77.632;2024-03-17T02:05:18;16.60;82.49
70294;DHT22;74367;35.280;-77.632;2024-03-17T02:07:44;16.53;80.40
70294;DHT22;74367;35.280;-77.632;2024-03-17T02:10:10;16.31;79.75
70294;DHT22;74367;35.280;-77.632;2024-03-17T02:12:38;16.37;80.49
70294;DHT22;74367;35.280;-77.632;2024-03-17T02:15:04;16.39;79.88
70294;DHT22;74367;35.280;-77.632;2024-03-17T02:17:32;16.51;81.82
70294;DHT22;74367;35.280;-77.632;2024-03-17T02:19:58;16.43;81.71
70294;DHT22;74367;35.280;-77.632;2024-03-17T02:22:24;16.26;82.20
70294;DHT22;74367;35.280;-77.632;2024-03-17T02:24:50;16.34;80.36
70294;DHT22;74367;35.280;-77.632;2024-03-17T02:27:17;16.23;79.25
70294;DHT22;74367;35.280;-77.632;2024-03-17T02:29:43;15.58;80.52
70294;DHT22;74367;35.280;-77.632;2024-03-17T02:32:09;15.89;80.48
70294;DHT22;74367;35.280;-77.632;2024-03-17T02:34:36;16.23;81.96
70294;DHT22;74367;35.280;-77.632;2024-03-17T02:37:03;16.01;83.82
70294;DHT22;74367;35.280;-77.632;2024-03-17T02:39:30;15.98;82.36
70294;DHT22;74367;35.280;-77.632;2024-03-17T02:42:03;16.10;84.73
70294;DHT22;74367;35.280;-77.632;2024-03-17T02:44:31;16.13;80.81
70294;DHT22;74367;35.280;-77.632;2024-03-17T02:46:58;16.06;81.90
70294;DHT22;74367;35.280;-77.632;2024-03-17T02:49:28;15.83;80.05
70294;DHT22;74367;35.280;-77.632;2024-03-17T02:52:06;15.61;80.20
70294;DHT22;74367;35.280;-77.632;2024-03-17T02:54:32;16.09;83.47
70294;DHT22;74367;35.280;-77.632;2024-03-17T02:57:01;16.09;83.10
70294;DHT22;74367;35.280;-77.632;2024-03-17T02:59:27;15.62;80.90
70294;DHT22;74367;35.280;-77.632;2024-03-17T03:01:53;15.59;83.62
70294;DHT22;74367;35.280;-77.632;2024-03-17T03:04:20;15.31;80.79
70294;DHT22;74367;35.280;-77.632;2024-03-17T03:06:46;15.55;80.65
70294;DHT22;74367;35.280;-77.632;2024-03-17T03:09:12;15.77;83.88
70294;DHT22;74367;35.280;-77.632;2024-03-17T03:11:41;15.64;79.97
70294;DHT22;74367;35.280;-77.632;2024-03-17T03:14:07;15.58;80.25
70294;DHT22;74367;35.280;-77.632;2024-03-17T03:16:34;15.65;82.78
70294;DHT22;74367;35.280;-77.632;2024-03-17T03:19:00;15.78;82.47
70294;DHT22;74367;35.280;-77.632;2024-03-17T03:21:26;15.83;82.80
70294;DHT22;74367;35.280;-77.632;2024-03-17T03:23:52;15.93;85.46
70294;DHT22;74367;35.280;-77.632;2024-03-17T03:26:18;15.62;81.68
70294;DHT22;74367;35.280;-77.632;2024-03-17T03:28:44;15.47;80.68
70294;DHT22;74367;35.280;-77.632;2024-03-17T03:31:11;15.59;83.88
70294;DHT22;74367;35.280;-77.632;2024-03-17T03:33:40;15.52;82.53
70294;DHT22;74367;35.280;-77.632;2024-03-17T03:36:14;15.58;83.46
70294;DHT22;74367;35.280;-77.632;2024-03-17T03:38:41;15.31;81.61
70294;DHT22;74367;35.280;-77.632;2024-03-17T03:41:08;15.31;81.31
70294;DHT22;74367;35.280;-77.632;2024-03-17T03:43:34;15.57;82.39
70294;DHT22;74367;35.280;-77.632;2024-03-17T03:46:01;15.68;81.66
70294;DHT22;74367;35.280;-77.632;2024-03-17T03:48:28;15.68;82.16
70294;DHT22;74367;35.280;-77.632;2024-03-17T03:50:54;15.75;80.88
70294;DHT22;74367;35.280;-77.632;2024-03-17T03:53:20;15.41;81.46
70294;DHT22;74367;35.280;-77.632;2024-03-17T03:55:46;15.50;85.05
70294;DHT22;74367;35.280;-77.632;2024-03-17T03:58:12;15.38;82.61
70294;DHT22;74367;35.280;-77.632;2024-03-17T04:00:39;15.52;84.29
70294;DHT22;74367;35.280;-77.632;2024-03-17T04:03:05;15.54;83.38
70294;DHT22;74367;35.280;-77.632;2024-03-17T04:05:31;15.65;83.81
70294;DHT22;74367;35.280;-77.632;2024-03-17T04:07:57;15.55;82.17
70294;DHT22;74367;35.280;-77.632;2024-03-17T04:10:24;15.66;83.17
70294;DHT22;74367;35.280;-77.632;2024-03-17T04:12:51;15.65;84.13
70294;DHT22;74367;35.280;-77.632;2024-03-17T04:15:17;15.72;83.96
70294;DHT22;74367;35.280;-77.632;2024-03-17T04:17:43;15.48;84.50
70294;DHT22;74367;35.280;-77.632;2024-03-17T04:20:09;15.16;82.07
70294;DHT22;74367;35.280;-77.632;2024-03-17T04:22:39;15.41;82.64
70294;DHT22;74367;35.280;-77.632;2024-03-17T04:25:06;15.41;82.89
70294;DHT22;74367;35.280;-77.632;2024-03-17T04:27:33;15.42;84.43
70294;DHT22;74367;35.280;-77.632;2024-03-17T04:30:00;15.21;86.26
70294;DHT22;74367;35.280;-77.632;2024-03-17T04:32:26;15.26;86.07
70294;DHT22;74367;35.280;-77.632;2024-03-17T04:34:56;15.45;85.05
70294;DHT22;74367;35.280;-77.632;2024-03-17T04:37:22;14.93;86.75
70294;DHT22;74367;35.280;-77.632;2024-03-17T04:39:50;14.96;86.70
70294;DHT22;74367;35.280;-77.632;2024-03-17T04:42:17;15.06;84.49
70294;DHT22;74367;35.280;-77.632;2024-03-17T04:44:44;15.19;83.90
70294;DHT22;74367;35.280;-77.632;2024-03-17T04:47:10;15.34;86.80
70294;DHT22;74367;35.280;-77.632;2024-03-17T04:49:43;15.08;84.55
70294;DHT22;74367;35.280;-77.632;2024-03-17T04:52:12;15.08;86.23
70294;DHT22;74367;35.280;-77.632;2024-03-17T04:54:39;14.90;83.94
70294;DHT22;74367;35.280;-77.632;2024-03-17T04:57:09;15.30;85.92
70294;DHT22;74367;35.280;-77.632;2024-03-17T04:59:35;15.38;86.60
70294;DHT22;74367;35.280;-77.632;2024-03-17T05:02:01;15.31;86.11
70294;DHT22;74367;35.280;-77.632;2024-03-17T05:04:28;15.17;83.11
70294;DHT22;74367;35.280;-77.632;2024-03-17T05:06:54;15.44;86.97
70294;DHT22;74367;35.280;-77.632;2024-03-17T05:09:20;15.30;83.68
70294;DHT22;74367;35.280;-77.632;2024-03-17T05:11:46;15.28;83.23
70294;DHT22;74367;35.280;-77.632;2024-03-17T05:14:15;15.38;86.26
70294;DHT22;74367;35.280;-77.632;2024-03-17T05:16:41;15.10;86.96
70294;DHT22;74367;35.280;-77.632;2024-03-17T05:19:07;14.86;84.73
70294;DHT22;74367;35.280;-77.632;2024-03-17T05:21:34;14.94;84.82
70294;DHT22;74367;35.280;-77.632;2024-03-17T05:24:03;15.10;83.34
70294;DHT22;74367;35.280;-77.632;2024-03-17T05:26:29;14.76;84.10
70294;DHT22;74367;35.280;-77.632;2024-03-17T05:28:57;14.63;85.73
70294;DHT22;74367;35.280;-77.632;2024-03-17T05:31:23;15.03;87.29
70294;DHT22;74367;35.280;-77.632;2024-03-17T05:33:49;15.07;85.69
70294;DHT22;74367;35.280;-77.632;2024-03-17T05:36:15;15.16;84.04
70294;DHT22;74367;35.280;-77.632;2024-03-17T05:38:45;15.30;85.09
70294;DHT22;74367;35.280;-77.632;2024-03-17T05:41:12;15.47;85.64
70294;DHT22;74367;35.280;-77.632;2024-03-17T05:43:40;15.16;88.33
70294;DHT22;74367;35.280;-77.632;2024-03-17T05:46:08;15.30;86.61
70294;DHT22;74367;35.280;-77.632;2024-03-17T05:48:38;15.20;85.46
70294;DHT22;74367;35.280;-77.632;2024-03-17T05:51:09;15.42;86.29
70294;DHT22;74367;35.280;-77.632;2024-03-17T05:53:35;15.44;86.65
70294;DHT22;74367;35.280;-77.632;2024-03-17T05:56:03;15.33;86.05
70294;DHT22;74367;35.280;-77.632;2024-03-17T05:58:29;15.34;84.88
70294;DHT22;74367;35.280;-77.632;2024-03-17T06:00:56;15.24;86.75
70294;DHT22;74367;35.280;-77.632;2024-03-17T06:03:22;15.26;86.44
70294;DHT22;74367;35.280;-77.632;2024-03-17T06:05:48;15.21;88.33
70294;DHT22;74367;35.280;-77.632;2024-03-17T06:08:14;15.35;86.00
70294;DHT22;74367;35.280;-77.632;2024-03-17T06:10:46;15.40;86.19
70294;DHT22;74367;35.280;-77.632;2024-03-17T06:13:13;15.20;85.07
70294;DHT22;74367;35.280;-77.632;2024-03-17T06:15:41;15.21;87.02
70294;DHT22;74367;35.280;-77.632;2024-03-17T06:18:07;15.11;87.92
70294;DHT22;74367;35.280;-77.632;2024-03-17T06:20:41;15.16;87.75
70294;DHT22;74367;35.280;-77.632;2024-03-17T06:23:08;15.00;86.36
70294;DHT22;74367;35.280;-77.632;2024-03-17T06:25:42;15.04;86.79
70294;DHT22;74367;35.280;-77.632;2024-03-17T06:28:09;15.33;88.72
70294;DHT22;74367;35.280;-77.632;2024-03-17T06:30:43;15.23;86.27
70294;DHT22;74367;35.280;-77.632;2024-03-17T06:33:13;15.27;86.41
70294;DHT22;74367;35.280;-77.632;2024-03-17T06:35:40;15.14;87.90
70294;DHT22;74367;35.280;-77.632;2024-03-17T06:38:06;14.80;85.81
70294;DHT22;74367;35.280;-77.632;2024-03-17T06:40:39;15.16;88.07
70294;DHT22;74367;35.280;-77.632;2024-03-17T06:43:05;15.06;86.78
70294;DHT22;74367;35.280;-77.632;2024-03-17T06:45:32;14.94;86.48
70294;DHT22;74367;35.280;-77.632;2024-03-17T06:47:58;15.02;87.69
70294;DHT22;74367;35.280;-77.632;2024-03-17T06:50:24;15.04;87.69
70294;DHT22;74367;35.280;-77.632;2024-03-17T06:52:50;15.04;86.41
70294;DHT22;74367;35.280;-77.632;2024-03-17T06:55:19;14.99;88.97
70294;DHT22;74367;35.280;-77.632;2024-03-17T06:57:47;14.84;86.44
70294;DHT22;74367;35.280;-77.632;2024-03-17T07:00:14;15.04;90.31
70294;DHT22;74367;35.280;-77.632;2024-03-17T07:02:41;15.11;88.80
70294;DHT22;74367;35.280;-77.632;2024-03-17T07:05:17;15.07;88.43
70294;DHT22;74367;35.280;-77.632;2024-03-17T07:07:45;14.99;87.01
70294;DHT22;74367;35.280;-77.632;2024-03-17T07:10:11;14.80;87.28
70294;DHT22;74367;35.280;-77.632;2024-03-17T07:12:41;14.96;87.15
70294;DHT22;74367;35.280;-77.632;2024-03-17T07:15:07;14.80;87.81
70294;DHT22;74367;35.280;-77.632;2024-03-17T07:17:34;14.87;87.83
70294;DHT22;74367;35.280;-77.632;2024-03-17T07:20:00;14.89;87.11
70294;DHT22;74367;35.280;-77.632;2024-03-17T07:22:27;15.08;90.37
70294;DHT22;74367;35.280;-77.632;2024-03-17T07:24:54;15.21;90.08
70294;DHT22;74367;35.280;-77.632;2024-03-17T07:27:29;15.10;86.56
70294;DHT22;74367;35.280;-77.632;2024-03-17T07:29:57;15.35;89.41
70294;DHT22;74367;35.280;-77.632;2024-03-17T07:32:23;15.41;89.34
70294;DHT22;74367;35.280;-77.632;2024-03-17T07:34:49;15.27;87.22
70294;DHT22;74367;35.280;-77.632;2024-03-17T07:37:16;15.27;88.90
70294;DHT22;74367;35.280;-77.632;2024-03-17T07:39:42;15.47;88.51
70294;DHT22;74367;35.280;-77.632;2024-03-17T07:42:08;15.61;90.08
70294;DHT22;74367;35.280;-77.632;2024-03-17T07:44:34;15.44;89.13
70294;DHT22;74367;35.280;-77.632;2024-03-17T07:47:01;15.37;89.21
70294;DHT22;74367;35.280;-77.632;2024-03-17T07:49:27;15.27;89.51
70294;DHT22;74367;35.280;-77.632;2024-03-17T07:51:53;15.19;89.31
70294;DHT22;74367;35.280;-77.632;2024-03-17T07:54:19;15.04;89.94
70294;DHT22;74367;35.280;-77.632;2024-03-17T07:56:45;14.99;90.43
70294;DHT22;74367;35.280;-77.632;2024-03-17T07:59:12;15.03;92.13
70294;DHT22;74367;35.280;-77.632;2024-03-17T08:01:42;14.97;90.02
70294;DHT22;74367;35.280;-77.632;2024-03-17T08:04:08;15.02;91.41
70294;DHT22;74367;35.280;-77.632;2024-03-17T08:06:34;14.99;91.55
70294;DHT22;74367;35.280;-77.632;2024-03-17T08:09:00;15.17;90.93
70294;DHT22;74367;35.280;-77.632;2024-03-17T08:11:26;15.14;90.76
70294;DHT22;74367;35.280;-77.632;2024-03-17T08:13:52;15.03;91.38
70294;DHT22;74367;35.280;-77.632;2024-03-17T08:16:19;15.30;91.71
70294;DHT22;74367;35.280;-77.632;2024-03-17T08:18:45;14.96;90.07
70294;DHT22;74367;35.280;-77.632;2024-03-17T08:21:12;15.04;91.34
70294;DHT22;74367;35.280;-77.632;2024-03-17T08:23:38;15.27;92.02
70294;DHT22;74367;35.280;-77.632;2024-03-17T08:26:13;15.19;90.49
70294;DHT22;74367;35.280;-77.632;2024-03-17T08:28:39;15.02;90.87
70294;DHT22;74367;35.280;-77.632;2024-03-17T08:31:05;15.02;91.68
70294;DHT22;74367;35.280;-77.632;2024-03-17T08:33:31;15.27;92.18
70294;DHT22;74367;35.280;-77.632;2024-03-17T08:36:04;15.37;93.15
70294;DHT22;74367;35.280;-77.632;2024-03-17T08:38:32;15.27;92.37
70294;DHT22;74367;35.280;-77.632;2024-03-17T08:41:06;15.48;92.21
70294;DHT22;74367;35.280;-77.632;2024-03-17T08:43:33;15.64;93.04
70294;DHT22;74367;35.280;-77.632;2024-03-17T08:46:01;15.69;91.62
70294;DHT22;74367;35.280;-77.632;2024-03-17T08:48:30;15.79;93.13
70294;DHT22;74367;35.280;-77.632;2024-03-17T08:51:00;15.82;93.14
70294;DHT22;74367;35.280;-77.632;2024-03-17T08:53:26;15.57;93.02
70294;DHT22;74367;35.280;-77.632;2024-03-17T08:55:52;15.54;92.82
70294;DHT22;74367;35.280;-77.632;2024-03-17T08:58:19;15.41;93.06
70294;DHT22;74367;35.280;-77.632;2024-03-17T09:00:45;15.45;93.40
70294;DHT22;74367;35.280;-77.632;2024-03-17T09:03:11;15.52;92.64
70294;DHT22;74367;35.280;-77.632;2024-03-17T09:05:44;15.35;92.84
70294;DHT22;74367;35.280;-77.632;2024-03-17T09:08:21;15.35;93.42
70294;DHT22;74367;35.280;-77.632;2024-03-17T09:10:49;15.28;93.59
70294;DHT22;74367;35.280;-77.632;2024-03-17T09:13:19;15.37;94.36
70294;DHT22;74367;35.280;-77.632;2024-03-17T09:15:59;15.35;94.05
70294;DHT22;74367;35.280;-77.632;2024-03-17T09:18:33;15.20;94.85
70294;DHT22;74367;35.280;-77.632;2024-03-17T09:20:59;15.51;95.02
70294;DHT22;74367;35.280;-77.632;2024-03-17T09:23:27;15.62;94.76
70294;DHT22;74367;35.280;-77.632;2024-03-17T09:26:14;15.51;94.77
70294;DHT22;74367;35.280;-77.632;2024-03-17T09:28:42;15.65;95.46
70294;DHT22;74367;35.280;-77.632;2024-03-17T09:31:10;15.47;96.16
70294;DHT22;74367;35.280;-77.632;2024-03-17T09:33:37;15.51;96.19
70294;DHT22;74367;35.280;-77.632;2024-03-17T09:36:07;15.35;96.31
70294;DHT22;74367;35.280;-77.632;2024-03-17T09:38:35;15.45;96.27
70294;DHT22;74367;35.280;-77.632;2024-03-17T09:41:02;15.55;96.40
70294;DHT22;74367;35.280;-77.632;2024-03-17T09:43:29;15.54;96.39
70294;DHT22;74367;35.280;-77.632;2024-03-17T09:45:55;15.50;96.36
70294;DHT22;74367;35.280;-77.632;2024-03-17T09:48:25;15.52;96.19
70294;DHT22;74367;35.280;-77.632;2024-03-17T09:50:55;15.55;96.47
70294;DHT22;74367;35.280;-77.632;2024-03-17T09:56:10;15.34;96.59
70294;DHT22;74367;35.280;-77.632;2024-03-17T09:58:40;15.38;96.33
70294;DHT22;74367;35.280;-77.632;2024-03-17T10:01:06;15.44;96.39
70294;DHT22;74367;35.280;-77.632;2024-03-17T10:06:14;15.47;96.37
70294;DHT22;74367;35.280;-77.632;2024-03-17T10:11:12;15.51;96.84
70294;DHT22;74367;35.280;-77.632;2024-03-17T10:13:39;15.59;96.09
70294;DHT22;74367;35.280;-77.632;2024-03-17T10:16:06;15.45;95.75
70294;DHT22;74367;35.280;-77.632;2024-03-17T10:18:32;15.58;96.50
70294;DHT22;74367;35.280;-77.632;2024-03-17T10:20:59;15.58;96.03
70294;DHT22;74367;35.280;-77.632;2024-03-17T10:23:27;15.57;96.90
70294;DHT22;74367;35.280;-77.632;2024-03-17T10:25:53;15.55;96.27
70294;DHT22;74367;35.280;-77.632;2024-03-17T10:28:19;15.58;96.10
70294;DHT22;74367;35.280;-77.632;2024-03-17T10:30:59;15.66;96.28
70294;DHT22;74367;35.280;-77.632;2024-03-17T10:33:27;15.51;95.87
70294;DHT22;74367;35.280;-77.632;2024-03-17T10:36:00;15.52;95.90
70294;DHT22;74367;35.280;-77.632;2024-03-17T10:38:27;15.58;96.45
70294;DHT22;74367;35.280;-77.632;2024-03-17T10:40:54;15.37;95.88
70294;DHT22;74367;35.280;-77.632;2024-03-17T10:43:20;15.58;96.49
70294;DHT22;74367;35.280;-77.632;2024-03-17T10:45:54;15.62;96.00
70294;DHT22;74367;35.280;-77.632;2024-03-17T10:48:21;15.47;96.60
70294;DHT22;74367;35.280;-77.632;2024-03-17T10:50:50;15.44;96.55
70294;DHT22;74367;35.280;-77.632;2024-03-17T10:53:20;15.47;96.60
70294;DHT22;74367;35.280;-77.632;2024-03-17T10:56:04;15.42;96.52
70294;DHT22;74367;35.280;-77.632;2024-03-17T10:58:36;15.52;95.91
70294;DHT22;74367;35.280;-77.632;2024-03-17T11:01:04;15.57;96.82
70294;DHT22;74367;35.280;-77.632;2024-03-17T11:03:33;15.50;96.41
70294;DHT22;74367;35.280;-77.632;2024-03-17T11:06:04;15.65;96.21
70294;DHT22;74367;35.280;-77.632;2024-03-17T11:08:32;15.71;96.50
70294;DHT22;74367;35.280;-77.632;2024-03-17T11:10:59;15.71;96.17
70294;DHT22;74367;35.280;-77.632;2024-03-17T11:13:29;15.75;96.27
70294;DHT22;74367;35.280;-77.632;2024-03-17T11:15:59;15.78;95.46
70294;DHT22;74367;35.280;-77.632;2024-03-17T11:18:38;15.83;96.35
70294;DHT22;74367;35.280;-77.632;2024-03-17T11:21:19;15.83;94.90
70294;DHT22;74367;35.280;-77.632;2024-03-17T11:24:01;15.85;96.05
70294;DHT22;74367;35.280;-77.632;2024-03-17T11:26:30;15.77;95.27
70294;DHT22;74367;35.280;-77.632;2024-03-17T11:28:56;15.78;95.40
70294;DHT22;74367;35.280;-77.632;2024-03-17T11:31:44;15.82;96.31
70294;DHT22;74367;35.280;-77.632;2024-03-17T11:34:31;15.82;96.27
70294;DHT22;74367;35.280;-77.632;2024-03-17T11:36:58;15.71;95.00
70294;DHT22;74367;35.280;-77.632;2024-03-17T11:42:15;15.88;96.50
70294;DHT22;74367;35.280;-77.632;2024-03-17T11:44:43;15.92;95.99
70294;DHT22;74367;35.280;-77.632;2024-03-17T11:47:10;15.95;95.72
70294;DHT22;74367;35.280;-77.632;2024-03-17T11:49:40;16.02;95.41
70294;DHT22;74367;35.280;-77.632;2024-03-17T11:52:14;16.09;95.67
70294;DHT22;74367;35.280;-77.632;2024-03-17T11:54:45;16.01;96.11
70294;DHT22;74367;35.280;-77.632;2024-03-17T11:57:12;16.02;95.22
70294;DHT22;74367;35.280;-77.632;2024-03-17T11:59:40;16.05;95.18
70294;DHT22;74367;35.280;-77.632;2024-03-17T12:05:00;15.96;95.70
70294;DHT22;74367;35.280;-77.632;2024-03-17T12:07:26;15.99;95.63
70294;DHT22;74367;35.280;-77.632;2024-03-17T12:09:54;15.96;95.43
70294;DHT22;74367;35.280;-77.632;2024-03-17T12:14:49;16.02;96.72
70294;DHT22;74367;35.280;-77.632;2024-03-17T12:17:21;16.08;96.40
70294;DHT22;74367;35.280;-77.632;2024-03-17T12:19:48;16.10;96.45
70294;DHT22;74367;35.280;-77.632;2024-03-17T12:22:19;16.14;96.10
70294;DHT22;74367;35.280;-77.632;2024-03-17T12:24:50;16.19;96.57
70294;DHT22;74367;35.280;-77.632;2024-03-17T12:27:21;16.20;96.30
70294;DHT22;74367;35.280;-77.632;2024-03-17T12:29:49;16.19;96.78
70294;DHT22;74367;35.280;-77.632;2024-03-17T12:34:51;16.20;96.38
70294;DHT22;74367;35.280;-77.632;2024-03-17T12:37:22;16.23;96.39
70294;DHT22;74367;35.280;-77.632;2024-03-17T12:39:49;16.30;96.18
70294;DHT22;74367;35.280;-77.632;2024-03-17T12:42:16;16.36;95.62
70294;DHT22;74367;35.280;-77.632;2024-03-17T12:44:50;16.39;95.35
70294;DHT22;74367;35.280;-77.632;2024-03-17T12:47:21;16.40;96.08
70294;DHT22;74367;35.280;-77.632;2024-03-17T12:49:50;16.43;95.94
70294;DHT22;74367;35.280;-77.632;2024-03-17T12:52:20;16.34;95.43
70294;DHT22;74367;35.280;-77.632;2024-03-17T12:55:00;16.44;95.17
70294;DHT22;74367;35.280;-77.632;2024-03-17T12:57:45;16.49;96.00
70294;DHT22;74367;35.280;-77.632;2024-03-17T13:00:30;16.57;95.77
70294;DHT22;74367;35.280;-77.632;2024-03-17T13:02:57;16.63;94.96
70294;DHT22;74367;35.280;-77.632;2024-03-17T13:05:24;16.67;94.75
70294;DHT22;74367;35.280;-77.632;2024-03-17T13:07:50;16.71;94.31
70294;DHT22;74367;35.280;-77.632;2024-03-17T13:10:18;16.85;94.83
70294;DHT22;74367;35.280;-77.632;2024-03-17T13:12:45;16.89;94.06
70294;DHT22;74367;35.280;-77.632;2024-03-17T13:15:16;16.96;94.32
70294;DHT22;74367;35.280;-77.632;2024-03-17T13:17:43;17.09;93.37
70294;DHT22;74367;35.280;-77.632;2024-03-17T13:20:14;17.16;93.49
70294;DHT22;74367;35.280;-77.632;2024-03-17T13:22:44;17.20;93.00
70294;DHT22;74367;35.280;-77.632;2024-03-17T13:25:18;17.18;93.10
70294;DHT22;74367;35.280;-77.632;2024-03-17T13:27:47;17.16;93.31
70294;DHT22;74367;35.280;-77.632;2024-03-17T13:30:19;17.23;92.31
70294;DHT22;74367;35.280;-77.632;2024-03-17T13:32:45;17.20;92.81
70294;DHT22;74367;35.280;-77.632;2024-03-17T13:35:17;17.22;93.85
70294;DHT22;74367;35.280;-77.632;2024-03-17T13:37:45;17.42;92.83
70294;DHT22;74367;35.280;-77.632;2024-03-17T13:40:15;17.80;91.30
70294;DHT22;74367;35.280;-77.632;2024-03-17T13:42:49;17.86;91.34
70294;DHT22;74367;35.280;-77.632;2024-03-17T13:45:17;17.81;90.91
70294;DHT22;74367;35.280;-77.632;2024-03-17T13:48:04;17.97;90.76
70294;DHT22;74367;35.280;-77.632;2024-03-17T13:50:31;17.91;89.56
70294;DHT22;74367;35.280;-77.632;2024-03-17T13:52:57;17.81;90.20
70294;DHT22;74367;35.280;-77.632;2024-03-17T13:55:24;17.73;89.59
70294;DHT22;74367;35.280;-77.632;2024-03-17T13:57:55;17.74;90.68
70294;DHT22;74367;35.280;-77.632;2024-03-17T14:00:22;17.93;88.95
70294;DHT22;74367;35.280;-77.632;2024-03-17T14:02:50;18.07;88.11
70294;DHT22;74367;35.280;-77.632;2024-03-17T14:05:20;17.94;90.36
70294;DHT22;74367;35.280;-77.632;2024-03-17T14:07:47;17.94;88.44
70294;DHT22;74367;35.280;-77.632;2024-03-17T14:10:17;17.91;89.66
70294;DHT22;74367;35.280;-77.632;2024-03-17T14:12:45;18.14;85.69
70294;DHT22;74367;35.280;-77.632;2024-03-17T14:15:13;18.44;84.57
70294;DHT22;74367;35.280;-77.632;2024-03-17T14:17:41;18.29;88.60
70294;DHT22;74367;35.280;-77.632;2024-03-17T14:20:08;18.34;87.15
70294;DHT22;74367;35.280;-77.632;2024-03-17T14:22:37;18.49;83.91
70294;DHT22;74367;35.280;-77.632;2024-03-17T14:25:07;18.34;85.72
70294;DHT22;74367;35.280;-77.632;2024-03-17T14:27:36;18.46;84.65
70294;DHT22;74367;35.280;-77.632;2024-03-17T14:30:02;18.52;85.57
70294;DHT22;74367;35.280;-77.632;2024-03-17T14:32:30;18.63;84.00
70294;DHT22;74367;35.280;-77.632;2024-03-17T14:34:56;18.85;77.81
70294;DHT22;74367;35.280;-77.632;2024-03-17T14:37:22;18.86;81.31
70294;DHT22;74367;35.280;-77.632;2024-03-17T14:39:49;18.90;83.30
70294;DHT22;74367;35.280;-77.632;2024-03-17T14:42:15;18.92;79.62
70294;DHT22;74367;35.280;-77.632;2024-03-17T14:44:41;19.79;79.80
70294;DHT22;74367;35.280;-77.632;2024-03-17T14:47:07;20.12;77.38
70294;DHT22;74367;35.280;-77.632;2024-03-17T14:49:33;21.04;73.41
70294;DHT22;74367;35.280;-77.632;2024-03-17T14:52:00;21.29;69.84
70294;DHT22;74367;35.280;-77.632;2024-03-17T14:54:26;21.04;69.45
70294;DHT22;74367;35.280;-77.632;2024-03-17T14:56:53;20.30;71.73
70294;DHT22;74367;35.280;-77.632;2024-03-17T14:59:19;19.89;74.29
70294;DHT22;74367;35.280;-77.632;2024-03-17T15:01:46;19.95;71.58
70294;DHT22;74367;35.280;-77.632;2024-03-17T15:04:14;19.78;74.65
70294;DHT22;74367;35.280;-77.632;2024-03-17T15:06:41;19.90;73.24
70294;DHT22;74367;35.280;-77.632;2024-03-17T15:09:09;20.08;74.52
70294;DHT22;74367;35.280;-77.632;2024-03-17T15:11:35;20.03;72.88
70294;DHT22;74367;35.280;-77.632;2024-03-17T15:14:01;19.72;74.86
70294;DHT22;74367;35.280;-77.632;2024-03-17T15:16:30;19.97;69.95
70294;DHT22;74367;35.280;-77.632;2024-03-17T15:18:56;20.94;72.14
70294;DHT22;74367;35.280;-77.632;2024-03-17T15:21:23;21.76;69.65
70294;DHT22;74367;35.280;-77.632;2024-03-17T15:23:49;23.61;58.35
70294;DHT22;74367;35.280;-77.632;2024-03-17T15:26:15;22.56;61.05